Time;durP1;ratioP1;P1;durP2;ratioP2;P2;SDS_P1;SDS_P2;PMS_P1;PMS_P2;Temp;Humidity;BMP_temperature;BMP_pressure;BME280_temperature;BME280_humidity;BME280_pressure;Samples;Min_cycle;Max_cycle;Signal;HPM_P1;HPM_P2
2022/11/14 00:09:43;;;;;;;16.80;10.20;;;12.60;76.30;;;;;;21172998;28;20082;-62
2022/11/14 00:19:45;;;;;;;17.20;9.55;;;12.60;76.30;;;;;;21171412;28;20130;-62
2022/11/14 00:29:47;;;;;;;17.90;10.68;;;12.50;76.20;;;;;;21170196;28;20055;-61
2022/11/14 00:39:48;;;;;;;20.40;11.65;;;12.50;76.30;;;;;;21169386;28;20051;-62
2022/11/14 00:49:50;;;;;;;20.65;12.00;;;12.50;76.30;;;;;;21168128;28;20435;-64
2022/11/14 00:59:54;;;;;;;20.73;13.02;;;12.60;76.30;;;;;;21167944;28;20075;-60
2022/11/14 01:09:56;;;;;;;17.30;12.05;;;12.50;76.50;;;;;;21168548;28;20082;-63
2022/11/14 01:19:57;;;;;;;19.70;12.70;;;12.60;76.40;;;;;;21167052;28;20098;-64
2022/11/14 01:29:59;;;;;;;21.73;11.65;;;12.50;76.60;;;;;;21166771;28;20400;-62
2022/11/14 01:40:00;;;;;;;23.30;13.27;;;12.50;76.80;;;;;;21164667;28;20047;-63
2022/11/14 01:50:04;;;;;;;21.83;12.90;;;12.40;77.10;;;;;;21164053;28;20404;-63
2022/11/14 02:00:10;;;;;;;15.45;10.57;;;12.30;76.90;;;;;;21162852;28;20044;-64
2022/11/14 02:10:17;;;;;;;13.77;9.80;;;12.30;76.50;;;;;;21164233;28;20047;-63
2022/11/14 02:20:31;;;;;;;15.70;10.27;;;12.30;75.80;;;;;;21162755;28;20059;-62
2022/11/14 02:30:36;;;;;;;21.20;10.57;;;12.30;75.40;;;;;;21162719;28;20408;-63
2022/11/14 02:40:38;;;;;;;13.45;9.32;;;12.20;75.70;;;;;;21162776;28;20055;-64
2022/11/14 02:50:48;;;;;;;15.10;9.90;;;12.20;74.80;;;;;;21089411;28;20140;-64
2022/11/14 03:00:53;;;;;;;14.10;9.10;;;12.10;74.50;;;;;;21077187;28;20048;-61
2022/11/14 03:11:06;;;;;;;16.13;10.83;;;12.00;74.60;;;;;;21079191;28;20048;-63
2022/11/14 03:21:13;;;;;;;17.70;10.15;;;11.90;75.20;;;;;;21092116;28;20443;-60
2022/11/14 03:31:16;;;;;;;19.58;10.27;;;12.00;75.50;;;;;;21091388;28;20097;-60
2022/11/14 03:41:18;;;;;;;14.20;9.20;;;11.90;75.30;;;;;;21090477;28;20040;-61
2022/11/14 03:51:21;;;;;;;16.33;8.40;;;11.90;75.00;;;;;;21169447;28;20534;-63
2022/11/14 04:01:23;;;;;;;13.43;9.15;;;11.90;74.30;;;;;;21173922;28;20389;-62
2022/11/14 04:11:25;;;;;;;15.70;9.38;;;11.80;75.00;;;;;;21153585;28;20571;-63
2022/11/14 04:21:27;;;;;;;13.00;10.30;;;12.00;75.00;;;;;;21170887;28;20146;-62
2022/11/14 04:31:28;;;;;;;15.15;10.20;;;12.00;75.20;;;;;;21169736;28;20106;-62
2022/11/14 04:41:31;;;;;;;20.63;10.27;;;12.10;75.20;;;;;;21169882;28;20411;-61
2022/11/14 04:51:33;;;;;;;19.40;11.55;;;12.10;75.10;;;;;;21168981;28;20093;-60
2022/11/14 05:01:35;;;;;;;27.27;15.23;;;11.90;75.80;;;;;;21168588;28;20051;-64
2022/11/14 05:11:37;;;;;;;27.90;18.20;;;12.00;76.90;;;;;;21168083;28;20053;-62
2022/11/14 05:21:39;;;;;;;32.08;19.60;;;12.20;77.80;;;;;;21166925;28;20134;-63
2022/11/14 05:31:40;;;;;;;34.70;20.48;;;12.30;78.60;;;;;;21147912;28;20055;-60
2022/11/14 05:41:42;;;;;;;34.20;21.05;;;12.40;79.10;;;;;;21165819;28;20548;-63
2022/11/14 05:51:44;;;;;;;34.05;22.10;;;12.30;79.40;;;;;;21163687;28;20056;-65
2022/11/14 06:01:46;;;;;;;32.15;21.15;;;12.30;79.60;;;;;;21163886;28;20051;-63
2022/11/14 06:11:48;;;;;;;19.98;15.05;;;12.30;79.80;;;;;;21164529;28;20066;-62
2022/11/14 06:21:50;;;;;;;25.17;15.02;;;12.30;78.90;;;;;;21144890;28;20496;-62
2022/11/14 06:31:51;;;;;;;21.20;14.02;;;12.20;78.30;;;;;;21162726;28;20134;-64
2022/11/14 06:41:53;;;;;;;27.02;16.13;;;12.20;77.80;;;;;;21163141;28;20044;-63
2022/11/14 06:51:55;;;;;;;25.92;18.48;;;12.30;78.30;;;;;;21174708;28;20089;-61
2022/11/14 07:01:57;;;;;;;30.42;19.88;;;12.30;78.90;;;;;;21178865;28;20077;-62
2022/11/14 07:11:59;;;;;;;34.70;18.25;;;12.50;78.90;;;;;;21178246;28;20097;-61
2022/11/14 07:22:00;;;;;;;34.03;17.52;;;12.60;79.10;;;;;;21157977;28;20052;-61
2022/11/14 07:32:02;;;;;;;26.45;17.95;;;12.60;79.00;;;;;;21176155;28;20109;-62
2022/11/14 07:42:04;;;;;;;39.60;26.20;;;12.60;78.90;;;;;;21175796;28;20047;-62
2022/11/14 07:52:06;;;;;;;35.22;17.30;;;12.70;79.00;;;;;;21173655;28;20130;-60
2022/11/14 08:02:14;;;;;;;30.58;15.90;;;12.80;78.50;;;;;;21171441;28;20051;-63
2022/11/14 08:12:15;;;;;;;24.80;16.92;;;12.90;78.10;;;;;;21172169;28;20453;-62
2022/11/14 08:22:17;;;;;;;32.70;15.60;;;13.00;77.60;;;;;;21171802;28;20048;-62
2022/11/14 08:32:20;;;;;;;25.00;16.13;;;13.10;77.40;;;;;;21170466;28;20051;-61
2022/11/14 08:42:21;;;;;;;30.75;16.45;;;13.20;76.80;;;;;;21170653;28;20055;-62
2022/11/14 08:52:22;;;;;;;23.77;15.10;;;13.30;76.50;;;;;;21150317;28;20147;-61
2022/11/14 09:02:24;;;;;;;22.95;15.18;;;13.40;76.50;;;;;;21167901;28;20101;-61
2022/11/14 09:12:26;;;;;;;23.63;12.90;;;13.50;76.50;;;;;;21167938;28;20086;-61
2022/11/14 09:22:27;;;;;;;29.70;13.73;;;13.70;76.30;;;;;;21166480;28;20154;-62
2022/11/14 09:32:29;;;;;;;21.48;12.30;;;13.90;76.00;;;;;;21166204;28;20055;-62
2022/11/14 09:42:49;;;;;;;19.35;12.00;;;14.00;75.70;;;;;;21165312;28;20109;-61
2022/11/14 09:52:55;;;;;;;21.85;11.90;;;14.20;75.70;;;;;;21164379;28;20056;-61
2022/11/14 10:03:01;;;;;;;22.00;13.48;;;14.30;75.40;;;;;;21145115;28;20419;-61
2022/11/14 10:13:39;;;;;;;16.70;10.82;;;14.50;75.00;;;;;;21163487;28;20055;-63
2022/11/14 10:23:55;;;;;;;16.48;9.77;;;14.70;74.70;;;;;;21162396;28;20202;-62
2022/11/14 10:34:11;;;;;;;20.35;10.77;;;15.00;74.10;;;;;;21162713;28;20043;-62
2022/11/14 10:44:18;;;;;;;16.13;10.10;;;15.10;74.30;;;;;;21141640;28;20497;-62
2022/11/14 10:54:53;;;;;;;16.67;8.63;;;15.20;74.70;;;;;;21077889;28;20058;-62
2022/11/14 11:05:11;;;;;;;11.60;5.70;;;15.50;73.80;;;;;;20737698;28;20068;-63
2022/11/14 11:15:38;;;;;;;10.02;5.57;;;15.70;73.30;;;;;;20737681;28;20117;-63
2022/11/14 11:25:39;;;;;;;15.60;6.72;;;15.80;72.70;;;;;;20737702;28;20050;-62
2022/11/14 11:35:43;;;;;;;8.07;5.32;;;15.80;73.60;;;;;;20831769;28;20413;-62
2022/11/14 11:45:47;;;;;;;13.25;5.43;;;15.90;73.30;;;;;;21123851;28;20456;-63
2022/11/14 11:55:53;;;;;;;9.88;4.70;;;15.90;73.00;;;;;;21174229;28;20449;-64
2022/11/14 12:06:13;;;;;;;10.07;4.07;;;16.00;72.80;;;;;;21173105;28;20116;-62
2022/11/14 12:16:26;;;;;;;14.73;5.63;;;16.20;72.10;;;;;;21173123;28;20479;-63
2022/11/14 12:27:02;;;;;;;9.83;4.50;;;16.20;72.40;;;;;;21171689;28;20180;-64
2022/11/14 12:37:15;;;;;;;8.32;3.97;;;16.30;71.60;;;;;;21172138;28;20048;-67
2022/11/14 12:47:24;;;;;;;7.53;4.68;;;16.30;71.80;;;;;;21123283;28;20052;-63
2022/11/14 12:57:48;;;;;;;8.60;3.55;;;16.50;71.90;;;;;;21083867;28;20463;-62
2022/11/14 13:08:03;;;;;;;6.47;2.60;;;16.70;70.60;;;;;;21084108;28;20058;-64
2022/11/14 13:28:37;;;;;;;5.55;2.05;;;17.10;68.80;;;;;;21082185;28;20052;-62
2022/11/14 13:39:10;;;;;;;3.92;1.88;;;17.10;68.40;;;;;;21080320;28;20086;-62
2022/11/14 13:49:23;;;;;;;6.03;2.28;;;17.20;67.40;;;;;;21143126;28;20491;-62
2022/11/14 13:59:54;;;;;;;5.00;2.25;;;17.40;67.20;;;;;;21165422;28;20044;-63
2022/11/14 14:10:17;;;;;;;6.25;1.90;;;17.50;66.80;;;;;;21163854;28;20048;-61
2022/11/14 14:20:46;;;;;;;7.22;2.80;;;17.60;66.60;;;;;;21163443;28;20051;-63
2022/11/14 14:31:06;;;;;;;4.22;2.13;;;17.70;66.10;;;;;;21163469;28;20135;-61
2022/11/14 14:41:10;;;;;;;9.07;5.82;;;17.70;65.90;;;;;;21163576;28;20051;-64
2022/11/14 14:51:13;;;;;;;6.33;2.77;;;17.60;66.00;;;;;;21083106;28;20445;-61
2022/11/14 15:01:26;;;;;;;7.22;2.38;;;17.60;65.10;;;;;;21077073;28;20048;-62
2022/11/14 15:11:28;;;;;;;4.53;2.10;;;17.70;65.10;;;;;;21086946;28;20048;-63
2022/11/14 15:21:31;;;;;;;4.57;2.13;;;17.60;66.00;;;;;;21092044;28;20044;-62
2022/11/14 15:31:34;;;;;;;11.75;3.40;;;17.50;66.90;;;;;;21091884;28;20048;-62
2022/11/14 15:41:37;;;;;;;9.25;3.80;;;17.40;68.10;;;;;;21091166;28;20044;-67
2022/11/14 15:51:49;;;;;;;6.53;2.95;;;17.30;69.70;;;;;;21173753;28;20056;-67
2022/11/14 16:01:56;;;;;;;4.63;2.25;;;17.30;70.20;;;;;;21174740;28;20123;-66
2022/11/14 16:11:58;;;;;;;6.38;2.25;;;17.20;70.40;;;;;;21172544;28;20091;-65
2022/11/14 16:22:01;;;;;;;5.05;2.05;;;17.10;70.50;;;;;;21170784;28;20487;-64
2022/11/14 16:32:03;;;;;;;4.40;2.03;;;17.00;70.90;;;;;;21171150;28;20043;-67
2022/11/14 16:42:06;;;;;;;4.40;2.25;;;16.80;71.30;;;;;;21169996;28;20058;-65
2022/11/14 16:52:09;;;;;;;4.13;1.85;;;16.70;72.20;;;;;;21170292;28;20118;-62
2022/11/14 17:02:15;;;;;;;4.70;2.37;;;16.50;73.40;;;;;;21169250;28;20098;-67
2022/11/14 17:12:16;;;;;;;5.68;2.88;;;16.40;74.40;;;;;;21168095;28;20066;-64
2022/11/14 17:22:18;;;;;;;10.65;6.43;;;16.20;75.00;;;;;;21167476;28;20047;-63
2022/11/14 17:32:20;;;;;;;3.67;2.35;;;16.10;76.20;;;;;;21166209;28;20138;-66
2022/11/14 17:42:22;;;;;;;5.05;2.72;;;16.10;76.40;;;;;;21165866;28;20392;-65
2022/11/14 17:52:23;;;;;;;29.95;20.27;;;16.20;76.30;;;;;;21164433;28;20047;-65
2022/11/14 18:02:24;;;;;;;4.22;2.47;;;16.20;76.70;;;;;;21146194;28;20131;-64
2022/11/14 18:12:26;;;;;;;5.82;3.60;;;16.20;76.40;;;;;;21164162;28;20389;-65
2022/11/14 18:22:28;;;;;;;5.57;4.50;;;16.10;79.70;;;;;;21145638;28;20039;-64
2022/11/14 18:32:30;;;;;;;4.78;2.63;;;16.00;80.20;;;;;;21162053;28;20056;-63
2022/11/14 18:42:32;;;;;;;4.38;2.95;;;15.90;79.70;;;;;;21164501;28;20129;-63
2022/11/14 18:52:33;;;;;;;7.70;3.85;;;15.80;80.00;;;;;;21179947;28;20077;-62
2022/11/14 19:02:35;;;;;;;7.72;4.40;;;15.90;79.50;;;;;;21178809;28;20048;-64
2022/11/14 19:12:36;;;;;;;7.18;4.45;;;15.90;79.80;;;;;;21177646;28;20138;-66
2022/11/14 19:22:38;;;;;;;8.57;4.50;;;15.80;80.60;;;;;;21178144;28;20059;-63
2022/11/14 19:32:39;;;;;;;7.18;5.05;;;15.70;81.50;;;;;;21176737;28;20047;-65
2022/11/14 19:42:41;;;;;;;10.52;5.97;;;15.70;81.80;;;;;;21157025;28;20438;-62
2022/11/14 19:52:42;;;;;;;14.60;8.18;;;15.60;81.70;;;;;;21174148;28;20043;-66
2022/11/14 20:02:45;;;;;;;12.23;8.02;;;15.40;81.80;;;;;;21174165;28;20445;-66
2022/11/14 20:12:46;;;;;;;10.10;5.80;;;15.40;81.70;;;;;;21173314;28;20460;-62
2022/11/14 20:22:48;;;;;;;9.88;5.38;;;15.40;81.40;;;;;;21171877;28;20044;-62
2022/11/14 20:32:50;;;;;;;9.57;5.63;;;15.30;81.40;;;;;;21170542;28;20043;-61
2022/11/14 20:42:52;;;;;;;7.50;4.10;;;15.30;81.60;;;;;;21170380;28;20044;-64
2022/11/14 20:52:54;;;;;;;4.82;3.10;;;15.20;81.50;;;;;;21169945;28;20585;-62
2022/11/14 21:02:55;;;;;;;4.55;3.28;;;15.30;81.30;;;;;;21168895;28;20044;-64
2022/11/14 21:23:19;;;;;;;4.18;1.95;;;15.20;81.70;;;;;;21167199;28;20044;-63
2022/11/14 21:33:21;;;;;;;2.22;1.58;;;15.30;81.60;;;;;;21166957;28;20054;-67
2022/11/14 21:43:22;;;;;;;3.25;2.10;;;15.30;81.30;;;;;;21166508;28;20116;-67
2022/11/14 21:53:26;;;;;;;2.88;2.00;;;15.20;81.10;;;;;;21165788;28;20491;-64
2022/11/14 22:13:48;;;;;;;2.20;1.55;;;15.20;80.90;;;;;;21163682;28;20070;-65
2022/11/14 22:23:54;;;;;;;2.63;1.65;;;15.20;80.70;;;;;;21163255;28;20043;-62
2022/11/14 22:33:57;;;;;;;3.92;1.67;;;15.20;80.30;;;;;;21145316;28;20055;-68
2022/11/14 22:43:59;;;;;;;3.17;2.50;;;15.00;80.60;;;;;;21162649;28;20079;-66
2022/11/14 22:54:00;;;;;;;2.65;1.75;;;15.00;80.50;;;;;;21162060;28;20130;-64
2022/11/14 23:04:04;;;;;;;3.00;2.00;;;14.90;80.50;;;;;;21162427;28;20048;-64
2022/11/14 23:14:06;;;;;;;1.98;1.65;;;14.90;80.70;;;;;;21162279;28;20504;-62
2022/11/14 23:24:14;;;;;;;2.90;1.75;;;14.80;80.50;;;;;;21161561;28;20130;-63
2022/11/14 23:34:15;;;;;;;2.95;1.60;;;14.70;80.60;;;;;;21173577;28;20051;-63
2022/11/14 23:44:17;;;;;;;2.65;1.42;;;14.70;80.50;;;;;;21175814;28;20043;-62
2022/11/14 23:54:19;;;;;;;1.92;1.27;;;14.60;80.40;;;;;;21176489;28;20438;-64
